createdAt,value
2023-12-14T00:00:21.450Z,35.67
2023-12-14T00:02:50.666Z,35.60
2023-12-14T00:05:19.945Z,24.58
2023-12-14T00:07:49.412Z,34.35
2023-12-14T00:10:21.474Z,37.55
2023-12-14T00:12:53.300Z,30.15
2023-12-14T00:15:22.487Z,28.48
2023-12-14T00:17:51.684Z,23.52
2023-12-14T00:20:21.125Z,34.63
2023-12-14T00:22:50.403Z,30.33
2023-12-14T00:25:19.755Z,20.33
2023-12-14T00:27:48.946Z,31.65
2023-12-14T00:30:18.326Z,32.13
2023-12-14T00:32:47.647Z,27.58
2023-12-14T00:35:16.998Z,23.52
2023-12-14T00:37:46.324Z,24.80
2023-12-14T00:40:15.644Z,25.08
2023-12-14T00:42:44.823Z,35.67
2023-12-14T00:45:14.117Z,28.25
2023-12-14T00:47:43.364Z,26.20
2023-12-14T00:50:12.891Z,33.83
2023-12-14T00:52:42.181Z,27.58
2023-12-14T00:55:11.489Z,27.92
2023-12-14T00:57:40.852Z,31.25
2023-12-14T01:00:12.742Z,27.58
2023-12-14T01:02:42.123Z,35.20
2023-12-14T01:05:11.633Z,30.85
2023-12-14T01:07:41.284Z,30.05
2023-12-14T01:10:11.178Z,24.30
2023-12-14T01:12:42.863Z,27.73
2023-12-14T01:15:12.613Z,26.50
2023-12-14T01:17:41.979Z,29.98
2023-12-14T01:20:11.865Z,24.33
2023-12-14T01:22:41.282Z,21.73
2023-12-14T01:25:14.097Z,25.27
2023-12-14T01:27:43.245Z,25.20
2023-12-14T01:30:13.151Z,18.00
2023-12-14T01:32:42.495Z,21.60
2023-12-14T01:35:12.074Z,17.77
2023-12-14T01:37:41.568Z,23.95
2023-12-14T01:40:11.332Z,23.00
2023-12-14T01:42:40.666Z,22.80
2023-12-14T01:45:10.216Z,16.42
2023-12-14T01:47:39.571Z,23.13
2023-12-14T01:50:09.353Z,20.70
2023-12-14T01:53:08.875Z,16.90
2023-12-14T01:55:38.188Z,26.80
2023-12-14T01:58:07.753Z,22.10
2023-12-14T02:00:48.886Z,18.50
2023-12-14T02:03:19.792Z,17.52
2023-12-14T02:05:49.062Z,20.17
2023-12-14T02:08:19.393Z,17.48
2023-12-14T02:10:48.736Z,12.40
2023-12-14T02:13:18.066Z,12.43
2023-12-14T02:15:48.533Z,15.43
2023-12-14T02:18:17.932Z,14.85
2023-12-14T02:20:47.182Z,17.77
2023-12-14T02:23:16.473Z,13.18
2023-12-14T02:25:45.841Z,9.18
2023-12-14T02:28:15.167Z,13.57
2023-12-14T02:30:45.289Z,14.15
2023-12-14T02:33:14.719Z,12.45
2023-12-14T02:35:44.047Z,8.70
2023-12-14T02:38:13.309Z,12.82
2023-12-14T02:40:42.588Z,8.63
2023-12-14T02:43:11.756Z,9.52
2023-12-14T02:45:41.060Z,8.88
2023-12-14T02:48:10.354Z,11.00
2023-12-14T02:50:39.692Z,10.60
2023-12-14T02:53:09.090Z,11.98
2023-12-14T02:55:38.405Z,13.48
2023-12-14T02:58:22.878Z,11.55
2023-12-14T03:00:53.459Z,10.38
2023-12-14T03:03:22.750Z,11.98
2023-12-14T03:05:52.108Z,16.70
2023-12-14T03:08:21.327Z,14.95
2023-12-14T03:10:50.507Z,10.88
2023-12-14T03:13:19.573Z,9.95
2023-12-14T03:15:51.327Z,16.63
2023-12-14T03:18:20.899Z,17.23
2023-12-14T03:20:52.881Z,18.02
2023-12-14T03:23:22.156Z,14.63
2023-12-14T03:25:51.356Z,17.23
2023-12-14T03:28:20.567Z,14.15
2023-12-14T03:30:50.655Z,16.92
2023-12-14T03:33:19.912Z,11.18
2023-12-14T03:35:49.097Z,14.13
2023-12-14T03:38:18.227Z,15.20
2023-12-14T03:40:47.431Z,17.45
2023-12-14T03:43:16.607Z,18.50
2023-12-14T03:45:45.810Z,15.18
2023-12-14T03:48:15.195Z,13.48
2023-12-14T03:50:44.436Z,13.10
2023-12-14T03:53:13.625Z,10.65
2023-12-14T03:55:42.930Z,15.48
2023-12-14T03:58:12.272Z,12.90
2023-12-14T04:00:42.942Z,10.18
2023-12-14T04:03:12.197Z,12.10
2023-12-14T04:05:41.933Z,8.57
2023-12-14T04:08:11.146Z,13.40
2023-12-14T04:10:40.367Z,11.27
2023-12-14T04:13:09.602Z,15.35
2023-12-14T04:15:38.716Z,10.32
2023-12-14T04:18:10.816Z,15.75
2023-12-14T04:20:39.981Z,7.95
2023-12-14T04:23:09.205Z,11.43
2023-12-14T04:25:38.492Z,11.85
2023-12-14T04:28:07.673Z,19.33
2023-12-14T04:30:36.945Z,12.73
2023-12-14T04:33:06.049Z,16.35
2023-12-14T04:35:38.673Z,7.93
2023-12-14T04:38:08.245Z,10.07
2023-12-14T04:40:37.390Z,8.70
2023-12-14T04:43:06.572Z,9.60
2023-12-14T04:45:35.658Z,11.18
2023-12-14T04:48:04.923Z,6.07
2023-12-14T04:50:34.040Z,10.07
2023-12-14T04:53:03.265Z,9.05
2023-12-14T04:55:32.531Z,8.05
2023-12-14T04:58:01.744Z,8.07
2023-12-14T05:00:30.970Z,8.35
2023-12-14T05:03:00.260Z,10.88
2023-12-14T05:05:29.517Z,6.35
2023-12-14T05:07:58.843Z,9.73
2023-12-14T05:10:28.098Z,6.93
2023-12-14T05:12:57.193Z,10.27
2023-12-14T05:15:26.255Z,10.88
2023-12-14T05:17:55.453Z,8.88
2023-12-14T05:20:24.682Z,9.93
2023-12-14T05:22:53.920Z,11.57
2023-12-14T05:25:23.236Z,7.50
2023-12-14T05:27:52.473Z,16.40
2023-12-14T05:30:22.005Z,11.23
2023-12-14T05:32:51.188Z,7.50
2023-12-14T05:35:20.437Z,10.77
2023-12-14T05:37:50.060Z,8.57
2023-12-14T05:40:19.268Z,7.70
2023-12-14T05:42:48.561Z,7.78
2023-12-14T05:45:17.677Z,10.93
2023-12-14T05:47:47.162Z,11.07
2023-12-14T05:50:16.671Z,8.82
2023-12-14T05:52:47.989Z,8.98
2023-12-14T05:55:17.293Z,7.43
2023-12-14T05:57:48.102Z,17.25
2023-12-14T06:00:18.222Z,5.20
2023-12-14T06:02:47.346Z,9.43
2023-12-14T06:05:16.889Z,9.63
2023-12-14T06:07:46.198Z,9.50
2023-12-14T06:10:15.465Z,7.93
2023-12-14T06:12:44.648Z,8.48
2023-12-14T06:15:16.289Z,8.65
2023-12-14T06:17:45.594Z,12.80
2023-12-14T06:20:15.806Z,9.38
2023-12-14T06:22:47.696Z,10.73
2023-12-14T06:25:16.867Z,9.48
2023-12-14T06:27:47.168Z,7.82
2023-12-14T06:30:16.745Z,11.15
2023-12-14T06:32:46.139Z,12.63
2023-12-14T06:35:15.683Z,10.40
2023-12-14T06:37:45.146Z,10.57
2023-12-14T06:40:14.654Z,8.23
2023-12-14T06:42:44.602Z,8.70
2023-12-14T06:45:13.929Z,10.57
2023-12-14T06:47:45.644Z,10.77
2023-12-14T06:50:16.203Z,10.32
2023-12-14T06:52:45.579Z,7.60
2023-12-14T06:55:19.936Z,7.72
2023-12-14T06:57:49.322Z,10.18
2023-12-14T07:00:18.834Z,9.13
2023-12-14T07:02:50.807Z,6.70
2023-12-14T07:05:20.204Z,7.95
2023-12-14T07:07:49.413Z,11.55
2023-12-14T07:10:18.757Z,7.70
2023-12-14T07:12:49.028Z,11.13
2023-12-14T07:15:18.497Z,7.50
2023-12-14T07:17:47.819Z,13.10
2023-12-14T07:20:18.248Z,7.63
2023-12-14T07:22:47.582Z,12.93
2023-12-14T07:25:16.910Z,15.15
2023-12-14T07:27:46.149Z,6.88
2023-12-14T07:30:16.166Z,14.75
2023-12-14T07:32:45.533Z,8.50
2023-12-14T07:35:14.862Z,9.13
2023-12-14T07:37:47.747Z,9.57
2023-12-14T07:40:16.942Z,7.13
2023-12-14T07:42:46.214Z,7.40
2023-12-14T07:45:15.507Z,13.75
2023-12-14T07:47:44.991Z,8.25
2023-12-14T07:50:14.429Z,11.65
2023-12-14T07:52:43.740Z,7.07
2023-12-14T07:55:12.986Z,11.25
2023-12-14T07:57:42.445Z,7.18
2023-12-14T08:00:12.972Z,9.55
2023-12-14T08:02:42.131Z,6.20
2023-12-14T08:05:11.941Z,8.85
2023-12-14T08:07:41.452Z,8.20
2023-12-14T08:10:11.421Z,10.65
2023-12-14T08:12:40.568Z,7.53
2023-12-14T08:15:10.725Z,8.90
2023-12-14T08:17:39.951Z,10.30
2023-12-14T08:20:11.308Z,10.90
2023-12-14T08:22:46.420Z,7.93
2023-12-14T08:25:16.874Z,17.38
2023-12-14T08:27:46.881Z,13.43
2023-12-14T08:30:16.589Z,9.13
2023-12-14T08:32:45.861Z,9.88
2023-12-14T08:35:15.184Z,8.18
2023-12-14T08:37:46.286Z,8.60
2023-12-14T08:40:15.693Z,13.02
2023-12-14T08:42:44.823Z,11.15
2023-12-14T08:45:13.997Z,51.75
2023-12-14T08:47:43.202Z,11.55
2023-12-14T08:50:12.573Z,14.15
2023-12-14T08:52:41.914Z,10.57
2023-12-14T08:55:11.932Z,12.20
2023-12-14T08:57:42.007Z,59.72
2023-12-14T09:00:11.698Z,11.88
2023-12-14T09:02:41.216Z,8.95
2023-12-14T09:05:14.040Z,6.00
2023-12-14T09:07:46.220Z,11.32
2023-12-14T09:10:15.703Z,11.82
2023-12-14T09:12:44.954Z,13.70
2023-12-14T09:15:14.269Z,12.18
2023-12-14T09:17:44.984Z,10.35
2023-12-14T09:20:14.814Z,10.98
2023-12-14T09:22:44.243Z,31.58
2023-12-14T09:25:13.450Z,9.90
2023-12-14T09:27:42.602Z,10.55
2023-12-14T09:30:13.185Z,7.00
2023-12-14T09:32:42.447Z,9.13
2023-12-14T09:35:12.511Z,11.95
2023-12-14T09:37:43.506Z,14.68
2023-12-14T09:40:14.903Z,14.80
2023-12-14T09:42:44.256Z,10.07
2023-12-14T09:45:14.061Z,15.15
2023-12-14T09:47:45.115Z,16.30
2023-12-14T09:50:16.650Z,7.75
2023-12-14T09:52:51.348Z,16.70
2023-12-14T09:55:21.194Z,16.50
2023-12-14T09:57:57.642Z,29.33
2023-12-14T10:00:41.095Z,16.92
2023-12-14T10:03:28.397Z,10.57
2023-12-14T10:06:00.494Z,18.35
2023-12-14T10:08:31.422Z,9.20
2023-12-14T10:11:01.689Z,13.88
2023-12-14T10:13:41.532Z,15.80
2023-12-14T10:16:11.152Z,18.65
2023-12-14T10:18:41.299Z,11.30
2023-12-14T10:21:13.572Z,19.10
2023-12-14T10:23:42.924Z,12.93
2023-12-14T10:26:12.678Z,18.67
2023-12-14T10:28:46.093Z,17.52
2023-12-14T10:33:45.537Z,22.92
2023-12-14T10:36:25.002Z,18.95
2023-12-14T10:39:03.218Z,17.80
2023-12-14T10:41:34.686Z,15.30
2023-12-14T10:44:19.817Z,24.92
2023-12-14T10:47:00.677Z,24.70
2023-12-14T10:49:31.347Z,17.30
2023-12-14T10:52:02.163Z,15.20
2023-12-14T10:54:35.139Z,18.27
2023-12-14T10:57:08.756Z,13.55
2023-12-14T11:02:23.269Z,20.92
2023-12-14T11:05:08.027Z,25.70
2023-12-14T11:07:57.263Z,30.92
2023-12-14T11:10:54.840Z,24.17
2023-12-14T11:13:34.175Z,30.92
2023-12-14T11:16:07.054Z,29.48
2023-12-14T11:18:41.005Z,29.60
2023-12-14T11:21:19.051Z,25.30
2023-12-14T11:23:52.794Z,24.17
2023-12-14T11:29:01.875Z,38.95
2023-12-14T11:31:36.413Z,34.15
2023-12-14T11:34:12.754Z,20.33
2023-12-14T11:36:51.366Z,35.65
2023-12-14T11:39:22.959Z,28.85
2023-12-14T11:42:15.093Z,45.65
2023-12-14T11:47:29.682Z,32.30
2023-12-14T11:50:05.611Z,38.97
2023-12-14T11:52:35.076Z,38.67
2023-12-14T11:55:04.394Z,24.42
2023-12-14T11:57:34.223Z,30.73
2023-12-14T12:00:10.699Z,28.65
2023-12-14T12:02:50.047Z,50.28
2023-12-14T12:05:21.315Z,41.00
2023-12-14T12:07:59.045Z,34.75
2023-12-14T12:10:28.396Z,46.35
2023-12-14T12:13:08.930Z,48.47
2023-12-14T12:15:41.486Z,45.85
2023-12-14T12:18:16.208Z,48.58
2023-12-14T12:20:49.508Z,52.63
2023-12-14T12:23:19.021Z,48.28
2023-12-14T12:25:48.261Z,57.22
2023-12-14T12:28:23.961Z,59.83
2023-12-14T12:30:53.192Z,55.65
2023-12-14T12:33:23.571Z,61.03
2023-12-14T12:36:03.156Z,48.20
2023-12-14T12:38:32.753Z,56.03
2023-12-14T12:41:04.335Z,61.40
2023-12-14T12:43:34.559Z,59.28
2023-12-14T12:46:08.554Z,55.42
2023-12-14T12:48:38.621Z,44.85
2023-12-14T12:51:08.277Z,57.78
2023-12-14T12:53:37.532Z,60.30
2023-12-14T12:56:09.807Z,52.78
2023-12-14T12:58:39.103Z,58.95
2023-12-14T13:01:11.180Z,47.35
2023-12-14T13:03:46.738Z,44.28
2023-12-14T13:06:16.008Z,46.60
2023-12-14T13:08:47.390Z,44.88
2023-12-14T13:11:22.036Z,49.13
2023-12-14T13:13:51.415Z,47.30
2023-12-14T13:16:31.221Z,38.55
2023-12-14T13:19:08.667Z,49.35
2023-12-14T13:21:38.311Z,45.63
2023-12-14T13:24:18.707Z,55.13
2023-12-14T13:26:50.153Z,44.75
2023-12-14T13:29:19.633Z,42.05
2023-12-14T13:31:51.931Z,57.05
2023-12-14T13:34:24.190Z,43.10
2023-12-14T13:36:56.741Z,45.67
2023-12-14T13:39:28.640Z,41.70
2023-12-14T13:41:57.840Z,48.10
2023-12-14T13:44:27.309Z,45.92
2023-12-14T13:46:58.936Z,45.35
2023-12-14T13:49:28.175Z,42.38
2023-12-14T13:51:57.351Z,43.80
2023-12-14T13:54:28.576Z,38.95
2023-12-14T13:57:00.617Z,44.75
2023-12-14T13:59:31.167Z,41.35
2023-12-14T14:02:03.034Z,40.58
2023-12-14T14:04:35.220Z,41.70
2023-12-14T14:07:07.983Z,32.30
2023-12-14T14:09:41.598Z,40.42
2023-12-14T14:12:11.071Z,36.45
2023-12-14T14:14:41.624Z,37.88
2023-12-14T14:17:11.237Z,33.28
2023-12-14T14:19:40.580Z,39.00
2023-12-14T14:22:12.783Z,29.02
2023-12-14T14:24:42.155Z,43.67
2023-12-14T14:27:14.365Z,36.63
2023-12-14T14:29:43.592Z,44.85
2023-12-14T14:32:13.208Z,45.63
2023-12-14T14:34:42.462Z,48.83
2023-12-14T14:37:12.942Z,42.08
2023-12-14T14:39:47.864Z,41.03
2023-12-14T14:42:17.171Z,53.92
2023-12-14T14:44:46.757Z,38.20
2023-12-14T14:47:16.294Z,35.22
2023-12-14T14:49:48.136Z,49.22
2023-12-14T14:52:20.945Z,50.85
2023-12-14T14:54:50.333Z,38.83
2023-12-14T14:57:21.071Z,42.97
2023-12-14T14:59:50.831Z,35.25
2023-12-14T15:02:22.928Z,34.05
2023-12-14T15:04:52.238Z,47.40
2023-12-14T15:07:21.876Z,34.60
2023-12-14T15:09:51.031Z,38.25
2023-12-14T15:12:20.231Z,41.42
2023-12-14T15:14:49.430Z,35.67
2023-12-14T15:17:21.289Z,35.70
2023-12-14T15:20:06.495Z,37.92
2023-12-14T15:22:44.532Z,38.63
2023-12-14T15:25:16.705Z,34.42
2023-12-14T15:27:46.113Z,34.28
2023-12-14T15:30:15.751Z,25.58
2023-12-14T15:32:47.325Z,35.95
2023-12-14T15:35:16.722Z,32.42
2023-12-14T15:37:47.657Z,33.92
2023-12-14T15:40:17.072Z,34.38
2023-12-14T15:42:46.395Z,36.40
2023-12-14T15:45:15.711Z,32.97
2023-12-14T15:47:45.176Z,32.95
2023-12-14T15:50:14.731Z,36.38
2023-12-14T15:52:44.111Z,36.65
2023-12-14T15:55:13.474Z,58.42
2023-12-14T15:57:43.091Z,42.72
2023-12-14T16:00:12.870Z,47.78
2023-12-14T16:02:45.295Z,63.58
2023-12-14T16:05:14.701Z,62.17
2023-12-14T16:07:44.868Z,49.08
2023-12-14T16:10:15.074Z,47.63
2023-12-14T16:12:44.227Z,47.78
2023-12-14T16:15:13.483Z,53.20
2023-12-14T16:17:42.833Z,48.58
2023-12-14T16:20:12.294Z,49.60
2023-12-14T16:22:41.509Z,51.25
2023-12-14T16:25:12.269Z,49.08
2023-12-14T16:27:41.566Z,52.17
2023-12-14T16:30:11.634Z,49.10
2023-12-14T16:32:41.682Z,50.13
2023-12-14T16:35:11.371Z,43.78
2023-12-14T16:37:40.724Z,48.60
2023-12-14T16:40:10.517Z,53.78
2023-12-14T16:42:39.887Z,50.28
2023-12-14T16:45:09.657Z,46.15
2023-12-14T16:47:38.981Z,49.40
2023-12-14T16:50:10.164Z,42.88
2023-12-14T16:52:39.443Z,46.67
2023-12-14T16:55:10.031Z,40.45
2023-12-14T16:57:39.226Z,48.78
2023-12-14T17:00:08.993Z,40.10
2023-12-14T17:02:38.489Z,42.63
2023-12-14T17:05:08.552Z,44.75
2023-12-14T17:07:37.693Z,47.97
2023-12-14T17:10:07.413Z,47.03
2023-12-14T17:12:36.889Z,40.80
2023-12-14T17:15:10.932Z,48.42
2023-12-14T17:20:09.781Z,41.30
2023-12-14T17:22:39.863Z,37.10
2023-12-14T17:25:09.475Z,59.70
2023-12-14T17:27:38.893Z,48.97
2023-12-14T17:30:09.354Z,53.40
2023-12-14T17:32:38.941Z,45.65
2023-12-14T17:35:08.568Z,41.55
2023-12-14T17:37:38.005Z,35.85
2023-12-14T17:40:07.991Z,37.63
2023-12-14T17:42:38.155Z,36.70
2023-12-14T17:45:07.870Z,33.80
2023-12-14T17:47:37.344Z,34.88
2023-12-14T17:50:07.344Z,36.35
2023-12-14T17:52:36.531Z,35.10
2023-12-14T17:55:08.792Z,34.25
2023-12-14T17:57:38.155Z,34.58
2023-12-14T18:00:09.604Z,41.90
2023-12-14T18:02:39.463Z,38.35
2023-12-14T18:05:09.221Z,35.38
2023-12-14T18:07:39.332Z,44.83
2023-12-14T18:10:10.695Z,42.65
2023-12-14T18:12:39.944Z,38.58
2023-12-14T18:15:09.361Z,44.17
2023-12-14T18:17:38.774Z,52.90
2023-12-14T18:20:08.569Z,38.60
2023-12-14T18:22:37.862Z,36.95
2023-12-14T18:25:07.380Z,41.10
2023-12-14T18:27:36.952Z,43.35
2023-12-14T18:30:08.192Z,47.20
2023-12-14T18:32:37.631Z,49.95
2023-12-14T18:35:07.254Z,36.67
2023-12-14T18:37:36.757Z,46.05
2023-12-14T18:40:06.358Z,37.58
2023-12-14T18:42:35.541Z,37.85
2023-12-14T18:45:05.514Z,34.97
2023-12-14T18:47:35.031Z,45.95
2023-12-14T18:50:07.481Z,45.03
2023-12-14T18:52:39.540Z,44.17
2023-12-14T18:55:10.417Z,39.15
2023-12-14T18:57:40.657Z,37.85
2023-12-14T19:00:10.479Z,40.67
2023-12-14T19:02:41.751Z,40.33
2023-12-14T19:05:13.073Z,39.67
2023-12-14T19:07:42.323Z,39.65
2023-12-14T19:10:12.885Z,46.38
2023-12-14T19:12:42.058Z,38.05
2023-12-14T19:15:11.626Z,38.78
2023-12-14T19:17:42.454Z,41.67
2023-12-14T19:20:13.472Z,41.03
2023-12-14T19:22:42.738Z,30.13
2023-12-14T19:25:13.250Z,38.78
2023-12-14T19:27:43.181Z,37.78
2023-12-14T19:30:19.475Z,38.53
2023-12-14T19:32:50.123Z,37.63
2023-12-14T19:35:19.608Z,32.60
2023-12-14T19:37:50.857Z,38.30
2023-12-14T19:40:20.354Z,47.35
2023-12-14T19:42:52.223Z,39.88
2023-12-14T19:45:21.333Z,43.50
2023-12-14T19:47:50.524Z,41.28
2023-12-14T19:50:19.993Z,36.78
2023-12-14T19:52:49.303Z,42.60
2023-12-14T19:55:18.588Z,45.60
2023-12-14T19:57:51.873Z,45.78
2023-12-14T20:00:21.384Z,44.70
2023-12-14T20:02:51.080Z,40.40
2023-12-14T20:05:20.367Z,33.33
2023-12-14T20:07:49.598Z,39.63
2023-12-14T20:10:18.799Z,38.78
2023-12-14T20:12:47.961Z,37.53
2023-12-14T20:15:17.273Z,32.33
2023-12-14T20:17:46.579Z,35.88
2023-12-14T20:20:16.004Z,42.47
2023-12-14T20:22:45.272Z,38.90
2023-12-14T20:25:14.433Z,46.47
2023-12-14T20:27:43.523Z,47.92
2023-12-14T20:30:14.374Z,55.75
2023-12-14T20:32:43.800Z,68.05
2023-12-14T20:35:13.033Z,57.70
2023-12-14T20:37:42.229Z,68.78
2023-12-14T20:40:19.526Z,47.00
2023-12-14T20:42:49.036Z,48.28
2023-12-14T20:45:19.248Z,41.15
2023-12-14T20:47:48.508Z,37.08
2023-12-14T20:50:18.492Z,40.55
2023-12-14T20:52:48.457Z,50.78
2023-12-14T20:55:17.794Z,46.72
2023-12-14T20:57:46.902Z,50.70
2023-12-14T21:00:16.407Z,72.93
2023-12-14T21:02:45.653Z,67.60
2023-12-14T21:05:14.872Z,70.90
2023-12-14T21:07:44.113Z,56.88
2023-12-14T21:10:15.417Z,53.03
2023-12-14T21:12:44.752Z,55.33
2023-12-14T21:15:14.019Z,56.67
2023-12-14T21:17:43.719Z,49.22
2023-12-14T21:20:13.562Z,43.42
2023-12-14T21:22:42.718Z,44.00
2023-12-14T21:25:16.616Z,56.47
2023-12-14T21:27:49.846Z,42.40
2023-12-14T21:30:23.953Z,44.33
2023-12-14T21:32:53.799Z,39.42
2023-12-14T21:35:22.975Z,46.72
2023-12-14T21:37:52.149Z,38.58
2023-12-14T21:40:22.288Z,41.42
2023-12-14T21:42:51.475Z,41.70
2023-12-14T21:45:20.742Z,38.40
2023-12-14T21:47:50.040Z,46.47
2023-12-14T21:50:19.327Z,40.50
2023-12-14T21:52:48.576Z,45.40
2023-12-14T21:55:17.781Z,34.58
2023-12-14T21:57:46.916Z,42.13
2023-12-14T22:00:16.781Z,43.22
2023-12-14T22:02:45.945Z,37.95
2023-12-14T22:05:15.567Z,36.08
2023-12-14T22:07:44.732Z,36.08
2023-12-14T22:10:17.877Z,33.58
2023-12-14T22:12:47.743Z,37.78
2023-12-14T22:15:17.245Z,36.58
2023-12-14T22:17:46.650Z,42.20
2023-12-14T22:20:16.023Z,36.97
2023-12-14T22:22:45.426Z,37.70
2023-12-14T22:25:14.578Z,37.35
2023-12-14T22:27:43.678Z,38.92
2023-12-14T22:30:13.182Z,37.85
2023-12-14T22:32:42.430Z,41.85
2023-12-14T22:35:11.904Z,52.20
2023-12-14T22:37:41.065Z,40.10
2023-12-14T22:40:10.987Z,40.25
2023-12-14T22:42:40.204Z,46.22
2023-12-14T22:45:09.550Z,44.15
2023-12-14T22:47:39.055Z,39.42
2023-12-14T22:50:09.663Z,45.92
2023-12-14T22:52:39.479Z,49.08
2023-12-14T22:55:12.768Z,48.33
2023-12-14T22:57:41.968Z,49.57
2023-12-14T23:00:14.827Z,53.85
2023-12-14T23:02:44.681Z,53.15
2023-12-14T23:05:13.882Z,44.22
2023-12-14T23:07:45.944Z,42.28
2023-12-14T23:10:15.642Z,47.03
2023-12-14T23:12:44.881Z,50.05
2023-12-14T23:15:14.191Z,48.60
2023-12-14T23:17:44.187Z,45.20
2023-12-14T23:20:14.029Z,46.00
2023-12-14T23:22:43.279Z,45.60
2023-12-14T23:25:12.433Z,40.05
2023-12-14T23:27:41.865Z,40.53
2023-12-14T23:30:11.189Z,48.67
2023-12-14T23:32:40.463Z,51.45
2023-12-14T23:35:10.193Z,59.33
2023-12-14T23:37:39.541Z,76.70
2023-12-14T23:40:09.303Z,65.07
2023-12-14T23:42:38.480Z,54.28
2023-12-14T23:45:08.277Z,76.22
2023-12-14T23:47:37.859Z,82.97
2023-12-14T23:50:08.444Z,70.03
2023-12-14T23:52:37.665Z,60.20
2023-12-14T23:55:07.266Z,50.22
2023-12-14T23:57:37.110Z,45.05
